Terminal Aerodrome Forecast
Issued by NWS Duluth, MN

Current Version | Previous Version | Text Only | Print | Product List | Glossary On
Versions: 1 2 3 4 5 6 7 8 9 10 11 12 13 14 15 16 17 18 19
474
FTUS43 KDLH 270531
TAFINL
TAF
KINL 270531Z 2706/2806 23004KT P6SM BKN250
     FM271600 16005KT P6SM VCSH SCT015 OVC100
     FM271800 VRB04KT P6SM -RA VCTS OVC080CB
     FM280000 06004KT P6SM OVC070=

USA.gov is the U.S. government's official web portal to all federal, state and local government web resources and services.